sensor_id;sensor_type;location;lat;lon;timestamp;P1;durP1;ratioP1;P2;durP2;ratioP2
44130;SDS011;29792;48.726;9.248;2023-02-28T00:00:19;2.88;;;2.30;;
44130;SDS011;29792;48.726;9.248;2023-02-28T00:02:46;3.15;;;2.53;;
44130;SDS011;29792;48.726;9.248;2023-02-28T00:05:12;4.70;;;2.05;;
44130;SDS011;29792;48.726;9.248;2023-02-28T00:07:40;3.35;;;1.80;;
44130;SDS011;29792;48.726;9.248;2023-02-28T00:10:07;3.00;;;2.40;;
44130;SDS011;29792;48.726;9.248;2023-02-28T00:12:34;3.47;;;1.95;;
44130;SDS011;29792;48.726;9.248;2023-02-28T00:14:59;2.70;;;1.98;;
44130;SDS011;29792;48.726;9.248;2023-02-28T00:17:25;3.33;;;2.80;;
44130;SDS011;29792;48.726;9.248;2023-02-28T00:19:50;5.20;;;2.97;;
44130;SDS011;29792;48.726;9.248;2023-02-28T00:22:16;5.60;;;3.13;;
44130;SDS011;29792;48.726;9.248;2023-02-28T00:24:43;5.50;;;2.65;;
44130;SDS011;29792;48.726;9.248;2023-02-28T00:27:09;4.82;;;2.90;;
44130;SDS011;29792;48.726;9.248;2023-02-28T00:29:35;2.63;;;1.73;;
44130;SDS011;29792;48.726;9.248;2023-02-28T00:32:01;4.15;;;2.88;;
44130;SDS011;29792;48.726;9.248;2023-02-28T00:34:26;3.88;;;2.40;;
44130;SDS011;29792;48.726;9.248;2023-02-28T00:36:52;5.85;;;3.00;;
44130;SDS011;29792;48.726;9.248;2023-02-28T00:39:17;2.90;;;2.03;;
44130;SDS011;29792;48.726;9.248;2023-02-28T00:41:42;4.65;;;2.67;;
44130;SDS011;29792;48.726;9.248;2023-02-28T00:44:08;2.15;;;1.85;;
44130;SDS011;29792;48.726;9.248;2023-02-28T00:46:33;4.13;;;2.25;;
44130;SDS011;29792;48.726;9.248;2023-02-28T00:48:59;3.45;;;2.03;;
44130;SDS011;29792;48.726;9.248;2023-02-28T00:51:24;2.70;;;2.35;;
44130;SDS011;29792;48.726;9.248;2023-02-28T00:53:49;4.85;;;3.15;;
44130;SDS011;29792;48.726;9.248;2023-02-28T00:56:14;3.60;;;2.15;;
44130;SDS011;29792;48.726;9.248;2023-02-28T00:58:40;3.78;;;1.77;;
44130;SDS011;29792;48.726;9.248;2023-02-28T01:01:05;7.40;;;2.75;;
44130;SDS011;29792;48.726;9.248;2023-02-28T01:03:31;4.25;;;2.88;;
44130;SDS011;29792;48.726;9.248;2023-02-28T01:05:56;3.80;;;2.17;;
44130;SDS011;29792;48.726;9.248;2023-02-28T01:08:22;4.63;;;2.45;;
44130;SDS011;29792;48.726;9.248;2023-02-28T01:10:47;3.95;;;2.53;;
44130;SDS011;29792;48.726;9.248;2023-02-28T01:13:13;4.45;;;2.95;;
44130;SDS011;29792;48.726;9.248;2023-02-28T01:15:42;4.13;;;2.63;;
44130;SDS011;29792;48.726;9.248;2023-02-28T01:18:10;3.15;;;2.45;;
44130;SDS011;29792;48.726;9.248;2023-02-28T01:20:36;3.05;;;2.03;;
44130;SDS011;29792;48.726;9.248;2023-02-28T01:23:02;5.05;;;3.25;;
44130;SDS011;29792;48.726;9.248;2023-02-28T01:25:27;4.07;;;2.33;;
44130;SDS011;29792;48.726;9.248;2023-02-28T01:27:53;4.43;;;2.58;;
44130;SDS011;29792;48.726;9.248;2023-02-28T01:30:18;5.00;;;2.58;;
44130;SDS011;29792;48.726;9.248;2023-02-28T01:32:44;4.38;;;2.80;;
44130;SDS011;29792;48.726;9.248;2023-02-28T01:35:09;5.13;;;2.85;;
44130;SDS011;29792;48.726;9.248;2023-02-28T01:37:34;6.50;;;2.53;;
44130;SDS011;29792;48.726;9.248;2023-02-28T01:39:59;3.35;;;3.05;;
44130;SDS011;29792;48.726;9.248;2023-02-28T01:42:25;3.88;;;2.80;;
44130;SDS011;29792;48.726;9.248;2023-02-28T01:47:44;4.07;;;3.08;;
44130;SDS011;29792;48.726;9.248;2023-02-28T01:50:12;4.55;;;2.60;;
44130;SDS011;29792;48.726;9.248;2023-02-28T01:52:44;3.67;;;2.90;;
44130;SDS011;29792;48.726;9.248;2023-02-28T01:55:11;3.50;;;3.20;;
44130;SDS011;29792;48.726;9.248;2023-02-28T01:57:39;2.97;;;2.67;;
44130;SDS011;29792;48.726;9.248;2023-02-28T02:00:09;4.95;;;3.00;;
44130;SDS011;29792;48.726;9.248;2023-02-28T02:02:38;9.18;;;5.25;;
44130;SDS011;29792;48.726;9.248;2023-02-28T02:05:47;6.03;;;3.88;;
44130;SDS011;29792;48.726;9.248;2023-02-28T02:07:56;5.28;;;3.97;;
44130;SDS011;29792;48.726;9.248;2023-02-28T02:10:39;7.55;;;4.05;;
44130;SDS011;29792;48.726;9.248;2023-02-28T02:18:52;4.40;;;2.83;;
44130;SDS011;29792;48.726;9.248;2023-02-28T02:21:34;6.82;;;4.57;;
44130;SDS011;29792;48.726;9.248;2023-02-28T02:26:58;8.00;;;3.30;;
44130;SDS011;29792;48.726;9.248;2023-02-28T02:41:04;5.05;;;2.95;;
44130;SDS011;29792;48.726;9.248;2023-02-28T02:46:08;5.80;;;3.42;;
44130;SDS011;29792;48.726;9.248;2023-02-28T02:48:38;11.77;;;5.50;;
44130;SDS011;29792;48.726;9.248;2023-02-28T02:51:10;6.22;;;4.20;;
44130;SDS011;29792;48.726;9.248;2023-02-28T02:53:41;7.97;;;3.67;;
44130;SDS011;29792;48.726;9.248;2023-02-28T02:56:11;6.15;;;3.45;;
44130;SDS011;29792;48.726;9.248;2023-02-28T02:58:40;4.60;;;2.92;;
44130;SDS011;29792;48.726;9.248;2023-02-28T03:01:08;3.78;;;3.22;;
44130;SDS011;29792;48.726;9.248;2023-02-28T03:03:37;6.28;;;3.58;;
44130;SDS011;29792;48.726;9.248;2023-02-28T03:06:03;7.25;;;4.20;;
44130;SDS011;29792;48.726;9.248;2023-02-28T03:08:33;7.72;;;3.47;;
44130;SDS011;29792;48.726;9.248;2023-02-28T03:11:00;6.80;;;3.08;;
44130;SDS011;29792;48.726;9.248;2023-02-28T03:30:19;4.18;;;3.00;;
44130;SDS011;29792;48.726;9.248;2023-02-28T03:32:58;4.35;;;3.90;;
44130;SDS011;29792;48.726;9.248;2023-02-28T03:35:36;7.22;;;3.65;;
44130;SDS011;29792;48.726;9.248;2023-02-28T03:38:09;6.10;;;3.10;;
44130;SDS011;29792;48.726;9.248;2023-02-28T03:40:40;9.25;;;5.30;;
44130;SDS011;29792;48.726;9.248;2023-02-28T03:43:13;4.15;;;2.90;;
44130;SDS011;29792;48.726;9.248;2023-02-28T03:45:44;7.97;;;3.15;;
44130;SDS011;29792;48.726;9.248;2023-02-28T03:48:22;6.30;;;4.68;;
44130;SDS011;29792;48.726;9.248;2023-02-28T03:50:53;5.30;;;4.78;;
44130;SDS011;29792;48.726;9.248;2023-02-28T03:53:30;9.70;;;4.30;;
44130;SDS011;29792;48.726;9.248;2023-02-28T03:56:05;6.80;;;4.57;;
44130;SDS011;29792;48.726;9.248;2023-02-28T04:01:11;5.72;;;5.20;;
44130;SDS011;29792;48.726;9.248;2023-02-28T04:03:40;7.07;;;4.18;;
44130;SDS011;29792;48.726;9.248;2023-02-28T04:06:05;5.22;;;4.55;;
44130;SDS011;29792;48.726;9.248;2023-02-28T04:08:33;4.10;;;3.42;;
44130;SDS011;29792;48.726;9.248;2023-02-28T04:11:03;4.45;;;3.47;;
44130;SDS011;29792;48.726;9.248;2023-02-28T04:13:38;5.45;;;4.63;;
44130;SDS011;29792;48.726;9.248;2023-02-28T04:16:06;4.63;;;3.58;;
44130;SDS011;29792;48.726;9.248;2023-02-28T04:18:37;7.15;;;3.72;;
44130;SDS011;29792;48.726;9.248;2023-02-28T04:21:06;5.40;;;4.28;;
44130;SDS011;29792;48.726;9.248;2023-02-28T04:23:31;4.70;;;3.72;;
44130;SDS011;29792;48.726;9.248;2023-02-28T04:25:56;5.57;;;4.13;;
44130;SDS011;29792;48.726;9.248;2023-02-28T04:28:22;6.90;;;4.25;;
44130;SDS011;29792;48.726;9.248;2023-02-28T04:30:47;3.97;;;3.58;;
44130;SDS011;29792;48.726;9.248;2023-02-28T04:33:12;4.90;;;4.28;;
44130;SDS011;29792;48.726;9.248;2023-02-28T04:35:41;5.30;;;4.80;;
44130;SDS011;29792;48.726;9.248;2023-02-28T04:38:06;5.65;;;4.10;;
44130;SDS011;29792;48.726;9.248;2023-02-28T04:40:31;5.85;;;4.72;;
44130;SDS011;29792;48.726;9.248;2023-02-28T04:42:56;5.43;;;4.57;;
44130;SDS011;29792;48.726;9.248;2023-02-28T04:45:22;4.80;;;4.18;;
44130;SDS011;29792;48.726;9.248;2023-02-28T04:47:47;5.55;;;4.18;;
44130;SDS011;29792;48.726;9.248;2023-02-28T04:50:12;5.38;;;3.92;;
44130;SDS011;29792;48.726;9.248;2023-02-28T04:52:37;5.15;;;4.07;;
44130;SDS011;29792;48.726;9.248;2023-02-28T04:55:03;9.05;;;4.40;;
44130;SDS011;29792;48.726;9.248;2023-02-28T04:57:28;6.97;;;5.40;;
44130;SDS011;29792;48.726;9.248;2023-02-28T04:59:54;4.43;;;3.58;;
44130;SDS011;29792;48.726;9.248;2023-02-28T05:02:20;7.38;;;5.38;;
44130;SDS011;29792;48.726;9.248;2023-02-28T05:04:46;5.95;;;4.97;;
44130;SDS011;29792;48.726;9.248;2023-02-28T05:07:11;8.05;;;4.75;;
44130;SDS011;29792;48.726;9.248;2023-02-28T05:09:36;7.68;;;5.07;;
44130;SDS011;29792;48.726;9.248;2023-02-28T05:12:01;8.70;;;4.93;;
44130;SDS011;29792;48.726;9.248;2023-02-28T05:14:27;5.88;;;4.47;;
44130;SDS011;29792;48.726;9.248;2023-02-28T05:16:52;13.75;;;6.25;;
44130;SDS011;29792;48.726;9.248;2023-02-28T05:19:17;7.50;;;4.28;;
44130;SDS011;29792;48.726;9.248;2023-02-28T05:21:50;6.30;;;4.15;;
44130;SDS011;29792;48.726;9.248;2023-02-28T05:24:17;5.65;;;3.83;;
44130;SDS011;29792;48.726;9.248;2023-02-28T05:26:47;7.18;;;5.40;;
44130;SDS011;29792;48.726;9.248;2023-02-28T05:29:13;6.20;;;4.55;;
44130;SDS011;29792;48.726;9.248;2023-02-28T05:31:38;6.13;;;4.60;;
44130;SDS011;29792;48.726;9.248;2023-02-28T05:34:04;7.28;;;4.47;;
44130;SDS011;29792;48.726;9.248;2023-02-28T05:36:29;6.88;;;5.30;;
44130;SDS011;29792;48.726;9.248;2023-02-28T05:38:55;18.83;;;6.28;;
44130;SDS011;29792;48.726;9.248;2023-02-28T05:41:20;7.22;;;4.85;;
44130;SDS011;29792;48.726;9.248;2023-02-28T05:43:46;10.88;;;5.15;;
44130;SDS011;29792;48.726;9.248;2023-02-28T05:46:12;7.15;;;4.78;;
44130;SDS011;29792;48.726;9.248;2023-02-28T05:48:39;6.63;;;5.45;;
44130;SDS011;29792;48.726;9.248;2023-02-28T05:51:05;6.03;;;5.10;;
44130;SDS011;29792;48.726;9.248;2023-02-28T05:53:31;7.45;;;4.38;;
44130;SDS011;29792;48.726;9.248;2023-02-28T05:55:57;7.47;;;4.97;;
44130;SDS011;29792;48.726;9.248;2023-02-28T05:58:22;6.82;;;4.75;;
44130;SDS011;29792;48.726;9.248;2023-02-28T06:00:50;9.57;;;6.47;;
44130;SDS011;29792;48.726;9.248;2023-02-28T06:03:15;8.32;;;5.55;;
44130;SDS011;29792;48.726;9.248;2023-02-28T06:05:41;7.28;;;5.05;;
44130;SDS011;29792;48.726;9.248;2023-02-28T06:08:06;6.82;;;5.78;;
44130;SDS011;29792;48.726;9.248;2023-02-28T06:10:32;7.22;;;4.70;;
44130;SDS011;29792;48.726;9.248;2023-02-28T06:13:01;7.75;;;6.15;;
44130;SDS011;29792;48.726;9.248;2023-02-28T06:15:28;8.82;;;6.03;;
44130;SDS011;29792;48.726;9.248;2023-02-28T06:17:54;6.82;;;5.97;;
44130;SDS011;29792;48.726;9.248;2023-02-28T06:20:21;8.48;;;5.90;;
44130;SDS011;29792;48.726;9.248;2023-02-28T06:22:47;8.45;;;6.03;;
44130;SDS011;29792;48.726;9.248;2023-02-28T06:25:12;7.97;;;4.80;;
44130;SDS011;29792;48.726;9.248;2023-02-28T06:27:38;6.05;;;5.45;;
44130;SDS011;29792;48.726;9.248;2023-02-28T06:30:03;8.55;;;4.93;;
44130;SDS011;29792;48.726;9.248;2023-02-28T06:32:29;10.27;;;6.70;;
44130;SDS011;29792;48.726;9.248;2023-02-28T06:34:54;7.80;;;5.95;;
44130;SDS011;29792;48.726;9.248;2023-02-28T06:37:19;7.15;;;4.95;;
44130;SDS011;29792;48.726;9.248;2023-02-28T06:39:45;6.95;;;4.93;;
44130;SDS011;29792;48.726;9.248;2023-02-28T06:42:10;7.15;;;4.97;;
44130;SDS011;29792;48.726;9.248;2023-02-28T06:44:35;7.60;;;5.30;;
44130;SDS011;29792;48.726;9.248;2023-02-28T06:47:01;5.05;;;4.47;;
44130;SDS011;29792;48.726;9.248;2023-02-28T06:49:32;7.47;;;5.35;;
44130;SDS011;29792;48.726;9.248;2023-02-28T06:51:58;10.65;;;5.55;;
44130;SDS011;29792;48.726;9.248;2023-02-28T06:54:23;6.38;;;5.68;;
44130;SDS011;29792;48.726;9.248;2023-02-28T06:56:49;6.70;;;5.97;;
44130;SDS011;29792;48.726;9.248;2023-02-28T06:59:14;8.52;;;5.72;;
44130;SDS011;29792;48.726;9.248;2023-02-28T07:01:40;6.60;;;5.72;;
44130;SDS011;29792;48.726;9.248;2023-02-28T07:04:06;10.60;;;6.22;;
44130;SDS011;29792;48.726;9.248;2023-02-28T07:06:31;9.52;;;7.32;;
44130;SDS011;29792;48.726;9.248;2023-02-28T07:08:57;6.88;;;5.75;;
44130;SDS011;29792;48.726;9.248;2023-02-28T07:11:23;8.77;;;7.30;;
44130;SDS011;29792;48.726;9.248;2023-02-28T07:13:51;10.18;;;7.53;;
44130;SDS011;29792;48.726;9.248;2023-02-28T07:16:17;8.73;;;6.13;;
44130;SDS011;29792;48.726;9.248;2023-02-28T07:18:43;12.23;;;7.55;;
44130;SDS011;29792;48.726;9.248;2023-02-28T07:21:09;8.45;;;6.45;;
44130;SDS011;29792;48.726;9.248;2023-02-28T07:23:36;7.80;;;6.15;;
44130;SDS011;29792;48.726;9.248;2023-02-28T07:26:03;9.02;;;5.20;;
44130;SDS011;29792;48.726;9.248;2023-02-28T07:28:28;8.43;;;6.93;;
44130;SDS011;29792;48.726;9.248;2023-02-28T07:30:54;10.30;;;6.45;;
44130;SDS011;29792;48.726;9.248;2023-02-28T07:33:19;12.00;;;8.40;;
44130;SDS011;29792;48.726;9.248;2023-02-28T07:35:44;9.20;;;6.28;;
44130;SDS011;29792;48.726;9.248;2023-02-28T07:38:09;11.02;;;7.55;;
44130;SDS011;29792;48.726;9.248;2023-02-28T07:40:35;14.98;;;7.15;;
44130;SDS011;29792;48.726;9.248;2023-02-28T07:43:01;9.68;;;6.47;;
44130;SDS011;29792;48.726;9.248;2023-02-28T07:45:28;10.48;;;6.68;;
44130;SDS011;29792;48.726;9.248;2023-02-28T07:47:54;9.25;;;6.75;;
44130;SDS011;29792;48.726;9.248;2023-02-28T07:50:20;10.05;;;8.45;;
44130;SDS011;29792;48.726;9.248;2023-02-28T07:52:46;9.48;;;7.38;;
44130;SDS011;29792;48.726;9.248;2023-02-28T07:55:11;10.30;;;7.03;;
44130;SDS011;29792;48.726;9.248;2023-02-28T07:57:36;9.07;;;5.82;;
44130;SDS011;29792;48.726;9.248;2023-02-28T08:00:03;6.47;;;5.78;;
44130;SDS011;29792;48.726;9.248;2023-02-28T08:02:29;10.77;;;7.45;;
44130;SDS011;29792;48.726;9.248;2023-02-28T08:04:55;8.88;;;5.95;;
44130;SDS011;29792;48.726;9.248;2023-02-28T08:07:20;9.07;;;6.10;;
44130;SDS011;29792;48.726;9.248;2023-02-28T08:09:46;8.55;;;6.63;;
44130;SDS011;29792;48.726;9.248;2023-02-28T08:12:11;9.60;;;7.13;;
44130;SDS011;29792;48.726;9.248;2023-02-28T08:14:37;8.18;;;5.95;;
44130;SDS011;29792;48.726;9.248;2023-02-28T08:17:03;9.35;;;7.07;;
44130;SDS011;29792;48.726;9.248;2023-02-28T08:19:29;7.38;;;6.60;;
44130;SDS011;29792;48.726;9.248;2023-02-28T08:21:54;10.77;;;7.95;;
44130;SDS011;29792;48.726;9.248;2023-02-28T08:24:20;10.60;;;6.80;;
44130;SDS011;29792;48.726;9.248;2023-02-28T08:26:45;10.00;;;7.93;;
44130;SDS011;29792;48.726;9.248;2023-02-28T08:29:11;11.75;;;7.85;;
44130;SDS011;29792;48.726;9.248;2023-02-28T08:31:36;9.90;;;7.35;;
44130;SDS011;29792;48.726;9.248;2023-02-28T08:34:12;11.40;;;7.18;;
44130;SDS011;29792;48.726;9.248;2023-02-28T08:36:38;10.00;;;6.93;;
44130;SDS011;29792;48.726;9.248;2023-02-28T08:39:04;9.27;;;7.70;;
44130;SDS011;29792;48.726;9.248;2023-02-28T08:41:32;11.25;;;6.50;;
44130;SDS011;29792;48.726;9.248;2023-02-28T08:43:58;11.85;;;6.30;;
44130;SDS011;29792;48.726;9.248;2023-02-28T08:46:23;9.68;;;8.18;;
44130;SDS011;29792;48.726;9.248;2023-02-28T08:48:52;9.65;;;7.72;;
44130;SDS011;29792;48.726;9.248;2023-02-28T08:51:19;12.23;;;6.72;;
44130;SDS011;29792;48.726;9.248;2023-02-28T08:53:52;10.20;;;6.47;;
44130;SDS011;29792;48.726;9.248;2023-02-28T08:56:18;7.97;;;7.00;;
44130;SDS011;29792;48.726;9.248;2023-02-28T08:58:45;11.10;;;6.85;;
44130;SDS011;29792;48.726;9.248;2023-02-28T09:01:13;10.18;;;6.95;;
44130;SDS011;29792;48.726;9.248;2023-02-28T09:03:40;7.90;;;6.63;;
44130;SDS011;29792;48.726;9.248;2023-02-28T09:06:06;15.07;;;8.77;;
44130;SDS011;29792;48.726;9.248;2023-02-28T09:08:32;10.02;;;7.75;;
44130;SDS011;29792;48.726;9.248;2023-02-28T09:10:58;10.57;;;6.28;;
44130;SDS011;29792;48.726;9.248;2023-02-28T09:13:24;9.77;;;7.82;;
44130;SDS011;29792;48.726;9.248;2023-02-28T09:15:50;9.55;;;6.85;;
44130;SDS011;29792;48.726;9.248;2023-02-28T09:18:15;9.07;;;6.60;;
44130;SDS011;29792;48.726;9.248;2023-02-28T09:20:41;11.65;;;7.60;;
44130;SDS011;29792;48.726;9.248;2023-02-28T09:23:07;9.73;;;7.40;;
44130;SDS011;29792;48.726;9.248;2023-02-28T09:25:33;8.43;;;6.30;;
44130;SDS011;29792;48.726;9.248;2023-02-28T09:27:59;9.75;;;6.88;;
44130;SDS011;29792;48.726;9.248;2023-02-28T09:30:24;9.77;;;7.55;;
44130;SDS011;29792;48.726;9.248;2023-02-28T09:32:50;10.82;;;7.20;;
44130;SDS011;29792;48.726;9.248;2023-02-28T09:35:18;13.00;;;7.90;;
44130;SDS011;29792;48.726;9.248;2023-02-28T09:37:49;12.75;;;7.90;;
44130;SDS011;29792;48.726;9.248;2023-02-28T09:40:16;12.07;;;8.00;;
44130;SDS011;29792;48.726;9.248;2023-02-28T09:42:44;9.75;;;6.97;;
44130;SDS011;29792;48.726;9.248;2023-02-28T09:45:29;9.15;;;7.00;;
44130;SDS011;29792;48.726;9.248;2023-02-28T09:48:10;10.15;;;8.00;;
44130;SDS011;29792;48.726;9.248;2023-02-28T09:50:40;11.55;;;7.35;;
44130;SDS011;29792;48.726;9.248;2023-02-28T09:53:13;10.40;;;8.27;;
44130;SDS011;29792;48.726;9.248;2023-02-28T09:55:48;10.20;;;8.00;;
44130;SDS011;29792;48.726;9.248;2023-02-28T09:58:20;9.27;;;6.20;;
44130;SDS011;29792;48.726;9.248;2023-02-28T10:03:46;13.52;;;9.45;;
44130;SDS011;29792;48.726;9.248;2023-02-28T10:06:20;15.40;;;8.73;;
44130;SDS011;29792;48.726;9.248;2023-02-28T10:11:27;10.35;;;8.32;;
44130;SDS011;29792;48.726;9.248;2023-02-28T10:14:01;10.52;;;9.43;;
44130;SDS011;29792;48.726;9.248;2023-02-28T10:16:50;7.65;;;6.70;;
44130;SDS011;29792;48.726;9.248;2023-02-28T10:22:14;13.10;;;8.57;;
44130;SDS011;29792;48.726;9.248;2023-02-28T10:24:43;11.75;;;7.93;;
44130;SDS011;29792;48.726;9.248;2023-02-28T10:27:23;11.38;;;8.05;;
44130;SDS011;29792;48.726;9.248;2023-02-28T10:29:51;10.75;;;7.63;;
44130;SDS011;29792;48.726;9.248;2023-02-28T10:32:19;12.93;;;8.45;;
44130;SDS011;29792;48.726;9.248;2023-02-28T10:34:54;9.90;;;7.88;;
44130;SDS011;29792;48.726;9.248;2023-02-28T10:37:23;6.47;;;5.85;;
44130;SDS011;29792;48.726;9.248;2023-02-28T10:39:49;11.35;;;7.28;;
44130;SDS011;29792;48.726;9.248;2023-02-28T10:42:25;10.82;;;8.70;;
44130;SDS011;29792;48.726;9.248;2023-02-28T10:47:49;7.72;;;6.90;;
44130;SDS011;29792;48.726;9.248;2023-02-28T10:58:29;12.55;;;9.10;;
44130;SDS011;29792;48.726;9.248;2023-02-28T11:01:12;13.38;;;9.20;;
44130;SDS011;29792;48.726;9.248;2023-02-28T11:03:40;8.52;;;6.78;;
44130;SDS011;29792;48.726;9.248;2023-02-28T11:06:07;9.57;;;7.97;;
44130;SDS011;29792;48.726;9.248;2023-02-28T11:08:49;9.07;;;7.97;;
44130;SDS011;29792;48.726;9.248;2023-02-28T11:11:17;8.27;;;6.78;;
44130;SDS011;29792;48.726;9.248;2023-02-28T11:13:44;10.18;;;8.10;;
44130;SDS011;29792;48.726;9.248;2023-02-28T11:16:12;10.68;;;7.03;;
44130;SDS011;29792;48.726;9.248;2023-02-28T11:18:44;8.50;;;6.97;;
44130;SDS011;29792;48.726;9.248;2023-02-28T11:21:17;10.48;;;7.63;;
44130;SDS011;29792;48.726;9.248;2023-02-28T11:23:46;7.55;;;6.57;;
44130;SDS011;29792;48.726;9.248;2023-02-28T11:26:14;11.18;;;7.40;;
44130;SDS011;29792;48.726;9.248;2023-02-28T11:28:40;7.78;;;6.97;;
44130;SDS011;29792;48.726;9.248;2023-02-28T11:33:51;8.18;;;6.28;;
44130;SDS011;29792;48.726;9.248;2023-02-28T11:38:56;7.70;;;6.90;;
44130;SDS011;29792;48.726;9.248;2023-02-28T11:41:39;8.25;;;6.78;;
44130;SDS011;29792;48.726;9.248;2023-02-28T11:47:17;8.75;;;6.45;;
44130;SDS011;29792;48.726;9.248;2023-02-28T11:52:39;9.23;;;6.75;;
44130;SDS011;29792;48.726;9.248;2023-02-28T11:55:21;7.30;;;6.15;;
44130;SDS011;29792;48.726;9.248;2023-02-28T12:11:40;8.05;;;6.55;;
44130;SDS011;29792;48.726;9.248;2023-02-28T12:22:45;8.82;;;6.70;;
44130;SDS011;29792;48.726;9.248;2023-02-28T12:28:12;7.65;;;6.80;;
44130;SDS011;29792;48.726;9.248;2023-02-28T12:30:47;7.85;;;7.07;;
44130;SDS011;29792;48.726;9.248;2023-02-28T12:33:20;9.57;;;7.25;;
44130;SDS011;29792;48.726;9.248;2023-02-28T12:35:51;7.45;;;6.63;;
44130;SDS011;29792;48.726;9.248;2023-02-28T12:38:31;13.88;;;9.00;;
44130;SDS011;29792;48.726;9.248;2023-02-28T12:41:03;9.13;;;7.57;;
44130;SDS011;29792;48.726;9.248;2023-02-28T12:43:36;9.43;;;7.95;;
44130;SDS011;29792;48.726;9.248;2023-02-28T12:46:08;9.85;;;7.47;;
44130;SDS011;29792;48.726;9.248;2023-02-28T12:48:42;9.90;;;7.55;;
44130;SDS011;29792;48.726;9.248;2023-02-28T12:51:11;9.93;;;6.78;;
44130;SDS011;29792;48.726;9.248;2023-02-28T12:56:36;9.52;;;6.82;;
44130;SDS011;29792;48.726;9.248;2023-02-28T12:59:18;9.10;;;7.05;;
44130;SDS011;29792;48.726;9.248;2023-02-28T13:01:57;9.68;;;6.95;;
44130;SDS011;29792;48.726;9.248;2023-02-28T13:04:31;9.73;;;7.43;;
44130;SDS011;29792;48.726;9.248;2023-02-28T13:09:50;12.80;;;6.95;;
44130;SDS011;29792;48.726;9.248;2023-02-28T13:12:18;10.35;;;7.43;;
44130;SDS011;29792;48.726;9.248;2023-02-28T13:14:45;8.02;;;6.85;;
44130;SDS011;29792;48.726;9.248;2023-02-28T13:17:12;8.73;;;6.82;;
44130;SDS011;29792;48.726;9.248;2023-02-28T13:24:55;9.48;;;7.68;;
44130;SDS011;29792;48.726;9.248;2023-02-28T13:27:31;11.43;;;6.57;;
44130;SDS011;29792;48.726;9.248;2023-02-28T13:29:59;7.82;;;6.80;;
44130;SDS011;29792;48.726;9.248;2023-02-28T13:32:33;7.65;;;6.55;;
44130;SDS011;29792;48.726;9.248;2023-02-28T13:39:58;8.88;;;6.57;;
44130;SDS011;29792;48.726;9.248;2023-02-28T13:42:50;8.77;;;6.85;;
44130;SDS011;29792;48.726;9.248;2023-02-28T13:45:22;8.55;;;6.85;;
44130;SDS011;29792;48.726;9.248;2023-02-28T13:48:01;8.52;;;6.82;;
44130;SDS011;29792;48.726;9.248;2023-02-28T13:50:30;7.97;;;7.18;;
44130;SDS011;29792;48.726;9.248;2023-02-28T13:55:51;7.47;;;6.78;;
44130;SDS011;29792;48.726;9.248;2023-02-28T14:01:16;7.35;;;6.65;;
44130;SDS011;29792;48.726;9.248;2023-02-28T14:06:35;8.23;;;6.72;;
44130;SDS011;29792;48.726;9.248;2023-02-28T14:09:16;8.30;;;6.35;;
44130;SDS011;29792;48.726;9.248;2023-02-28T14:11:48;10.05;;;7.10;;
44130;SDS011;29792;48.726;9.248;2023-02-28T14:17:07;6.80;;;5.22;;
44130;SDS011;29792;48.726;9.248;2023-02-28T14:19:37;8.48;;;7.35;;
44130;SDS011;29792;48.726;9.248;2023-02-28T14:27:56;6.97;;;5.95;;
44130;SDS011;29792;48.726;9.248;2023-02-28T14:30:43;7.10;;;6.28;;
44130;SDS011;29792;48.726;9.248;2023-02-28T14:36:26;7.93;;;6.53;;
44130;SDS011;29792;48.726;9.248;2023-02-28T14:38:57;7.63;;;6.38;;
44130;SDS011;29792;48.726;9.248;2023-02-28T14:41:33;7.82;;;6.55;;
44130;SDS011;29792;48.726;9.248;2023-02-28T14:44:03;9.73;;;6.93;;
44130;SDS011;29792;48.726;9.248;2023-02-28T14:46:39;7.80;;;6.90;;
44130;SDS011;29792;48.726;9.248;2023-02-28T14:49:07;7.82;;;6.40;;
44130;SDS011;29792;48.726;9.248;2023-02-28T14:51:41;9.90;;;7.37;;
44130;SDS011;29792;48.726;9.248;2023-02-28T14:54:07;7.93;;;7.13;;
44130;SDS011;29792;48.726;9.248;2023-02-28T14:56:38;7.63;;;6.90;;
44130;SDS011;29792;48.726;9.248;2023-02-28T14:59:05;7.97;;;6.60;;
44130;SDS011;29792;48.726;9.248;2023-02-28T15:01:47;8.90;;;7.63;;
44130;SDS011;29792;48.726;9.248;2023-02-28T15:04:18;9.13;;;6.70;;
44130;SDS011;29792;48.726;9.248;2023-02-28T15:07:06;7.03;;;5.82;;
44130;SDS011;29792;48.726;9.248;2023-02-28T15:09:33;7.18;;;6.28;;
44130;SDS011;29792;48.726;9.248;2023-02-28T15:11:58;7.57;;;6.15;;
44130;SDS011;29792;48.726;9.248;2023-02-28T15:14:24;8.15;;;6.30;;
44130;SDS011;29792;48.726;9.248;2023-02-28T15:16:55;6.72;;;5.75;;
44130;SDS011;29792;48.726;9.248;2023-02-28T15:19:29;8.68;;;6.63;;
44130;SDS011;29792;48.726;9.248;2023-02-28T15:21:59;9.32;;;6.65;;
44130;SDS011;29792;48.726;9.248;2023-02-28T15:27:14;10.00;;;7.43;;
44130;SDS011;29792;48.726;9.248;2023-02-28T15:29:46;7.10;;;6.03;;
44130;SDS011;29792;48.726;9.248;2023-02-28T15:32:32;7.53;;;6.75;;
44130;SDS011;29792;48.726;9.248;2023-02-28T15:34:59;7.38;;;6.57;;
44130;SDS011;29792;48.726;9.248;2023-02-28T15:37:48;8.38;;;7.00;;
44130;SDS011;29792;48.726;9.248;2023-02-28T15:43:13;8.38;;;7.35;;
44130;SDS011;29792;48.726;9.248;2023-02-28T15:45:41;7.32;;;6.47;;
44130;SDS011;29792;48.726;9.248;2023-02-28T15:48:14;8.60;;;7.72;;
44130;SDS011;29792;48.726;9.248;2023-02-28T15:50:42;9.43;;;7.00;;
44130;SDS011;29792;48.726;9.248;2023-02-28T15:53:21;7.55;;;6.80;;
44130;SDS011;29792;48.726;9.248;2023-02-28T15:55:58;9.23;;;7.72;;
44130;SDS011;29792;48.726;9.248;2023-02-28T15:58:26;9.15;;;7.40;;
44130;SDS011;29792;48.726;9.248;2023-02-28T16:01:00;8.18;;;7.30;;
44130;SDS011;29792;48.726;9.248;2023-02-28T16:03:48;8.30;;;6.55;;
44130;SDS011;29792;48.726;9.248;2023-02-28T16:08:46;8.02;;;6.38;;
44130;SDS011;29792;48.726;9.248;2023-02-28T16:11:13;8.65;;;6.70;;
44130;SDS011;29792;48.726;9.248;2023-02-28T16:13:39;9.48;;;7.97;;
44130;SDS011;29792;48.726;9.248;2023-02-28T16:16:04;8.50;;;7.60;;
44130;SDS011;29792;48.726;9.248;2023-02-28T16:18:29;11.70;;;7.72;;
44130;SDS011;29792;48.726;9.248;2023-02-28T16:20:55;10.43;;;7.25;;
44130;SDS011;29792;48.726;9.248;2023-02-28T16:23:20;8.40;;;7.32;;
44130;SDS011;29792;48.726;9.248;2023-02-28T16:25:45;8.10;;;7.25;;
44130;SDS011;29792;48.726;9.248;2023-02-28T16:28:21;9.02;;;6.60;;
44130;SDS011;29792;48.726;9.248;2023-02-28T16:30:55;10.57;;;7.75;;
44130;SDS011;29792;48.726;9.248;2023-02-28T16:33:20;11.52;;;8.07;;
44130;SDS011;29792;48.726;9.248;2023-02-28T16:35:46;9.18;;;7.55;;
44130;SDS011;29792;48.726;9.248;2023-02-28T16:38:11;9.60;;;7.28;;
44130;SDS011;29792;48.726;9.248;2023-02-28T16:40:36;10.63;;;7.38;;
44130;SDS011;29792;48.726;9.248;2023-02-28T16:43:05;9.90;;;7.82;;
44130;SDS011;29792;48.726;9.248;2023-02-28T16:45:34;11.40;;;8.45;;
44130;SDS011;29792;48.726;9.248;2023-02-28T16:47:59;13.60;;;8.93;;
44130;SDS011;29792;48.726;9.248;2023-02-28T16:50:26;10.93;;;7.93;;
44130;SDS011;29792;48.726;9.248;2023-02-28T16:52:52;12.90;;;10.00;;
44130;SDS011;29792;48.726;9.248;2023-02-28T16:55:19;10.27;;;8.30;;
44130;SDS011;29792;48.726;9.248;2023-02-28T16:57:46;11.35;;;8.00;;
44130;SDS011;29792;48.726;9.248;2023-02-28T17:00:16;9.63;;;7.88;;
44130;SDS011;29792;48.726;9.248;2023-02-28T17:02:41;9.82;;;7.88;;
44130;SDS011;29792;48.726;9.248;2023-02-28T17:05:08;11.45;;;8.35;;
44130;SDS011;29792;48.726;9.248;2023-02-28T17:07:35;11.50;;;8.60;;
44130;SDS011;29792;48.726;9.248;2023-02-28T17:10:01;10.98;;;8.32;;
44130;SDS011;29792;48.726;9.248;2023-02-28T17:12:33;10.85;;;8.13;;
44130;SDS011;29792;48.726;9.248;2023-02-28T17:14:58;11.65;;;8.80;;
44130;SDS011;29792;48.726;9.248;2023-02-28T17:17:24;9.68;;;7.78;;
44130;SDS011;29792;48.726;9.248;2023-02-28T17:19:50;13.00;;;8.98;;